createdAt,value
2022-12-12T00:01:23.345Z,96.40
2022-12-12T00:03:53.284Z,95.00
2022-12-12T00:06:34.345Z,94.20
2022-12-12T00:09:02.348Z,94.20
2022-12-12T00:11:32.406Z,94.70
2022-12-12T00:14:21.447Z,96.20
2022-12-12T00:16:49.278Z,95.00
2022-12-12T00:19:18.489Z,94.50
2022-12-12T00:21:49.808Z,94.70
2022-12-12T00:24:20.448Z,95.10
2022-12-12T00:26:51.443Z,97.30
2022-12-12T00:29:25.643Z,96.50
2022-12-12T00:31:53.498Z,94.90
2022-12-12T00:34:22.744Z,94.80
2022-12-12T00:36:53.772Z,96.30
2022-12-12T00:39:24.748Z,96.40
2022-12-12T00:41:54.501Z,94.60
2022-12-12T00:44:22.406Z,94.40
2022-12-12T00:46:50.379Z,95.40
2022-12-12T00:49:18.294Z,97.70
2022-12-12T00:51:53.581Z,96.10
2022-12-12T00:54:21.427Z,94.70
2022-12-12T00:56:49.301Z,94.70
2022-12-12T00:59:17.348Z,96.50
2022-12-12T01:01:46.434Z,97.30
2022-12-12T01:04:14.394Z,95.10
2022-12-12T01:06:42.298Z,94.70
2022-12-12T01:09:11.508Z,95.00
2022-12-12T01:11:39.433Z,97.10
2022-12-12T01:14:10.286Z,99.20
2022-12-12T01:16:38.245Z,99.80
2022-12-12T01:19:09.418Z,96.40
2022-12-12T01:21:38.071Z,94.60
2022-12-12T01:24:06.429Z,96.90
2022-12-12T01:26:50.853Z,98.30
2022-12-12T01:29:18.732Z,95.60
2022-12-12T01:31:51.708Z,94.40
2022-12-12T01:34:19.569Z,95.90
2022-12-12T01:36:52.478Z,97.90
2022-12-12T01:39:26.283Z,97.80
2022-12-12T01:42:13.746Z,95.10
2022-12-12T01:44:47.176Z,94.40
2022-12-12T01:47:20.327Z,94.70
2022-12-12T01:49:52.198Z,95.60
2022-12-12T01:52:23.624Z,93.80
2022-12-12T01:54:58.800Z,93.40
2022-12-12T01:57:34.041Z,94.60
2022-12-12T02:00:03.545Z,97.20
2022-12-12T02:02:31.582Z,96.50
2022-12-12T02:05:03.574Z,93.80
2022-12-12T02:07:43.910Z,93.70
2022-12-12T02:10:11.822Z,95.80
2022-12-12T02:12:43.416Z,96.80
2022-12-12T02:15:15.055Z,94.10
2022-12-12T02:18:09.818Z,94.00
2022-12-12T02:21:05.953Z,94.90
2022-12-12T02:24:10.552Z,96.30
2022-12-12T02:27:16.834Z,95.50
2022-12-12T02:30:11.872Z,94.50
2022-12-12T02:32:59.426Z,96.00
2022-12-12T02:35:54.941Z,98.00
2022-12-12T02:38:38.221Z,95.00
2022-12-12T02:41:16.393Z,94.40
2022-12-12T02:47:00.461Z,98.10
2022-12-12T02:49:36.454Z,96.50
2022-12-12T02:52:05.579Z,94.70
2022-12-12T02:54:39.564Z,94.60
2022-12-12T02:57:19.215Z,96.70
2022-12-12T02:59:51.447Z,98.10
2022-12-12T03:02:50.773Z,94.90
2022-12-12T03:05:58.653Z,94.70
2022-12-12T03:08:41.548Z,96.30
2022-12-12T03:11:13.800Z,96.00
2022-12-12T03:13:57.260Z,94.70
2022-12-12T03:16:28.607Z,94.60
2022-12-12T03:19:01.186Z,95.70
2022-12-12T03:21:56.750Z,96.20
2022-12-12T03:24:31.853Z,94.70
2022-12-12T03:27:08.394Z,94.80
2022-12-12T03:29:40.977Z,96.40
2022-12-12T03:32:13.413Z,97.20
2022-12-12T03:34:44.825Z,94.70
2022-12-12T03:37:19.535Z,94.80
2022-12-12T03:39:50.664Z,95.20
2022-12-12T03:42:35.892Z,95.70
2022-12-12T03:45:14.075Z,95.60
2022-12-12T03:47:50.090Z,95.60
2022-12-12T03:50:21.676Z,95.90
2022-12-12T03:52:58.122Z,97.70
2022-12-12T03:55:30.390Z,96.60
2022-12-12T03:58:01.177Z,95.50
2022-12-12T04:00:33.673Z,96.40
2022-12-12T04:03:16.955Z,95.60
2022-12-12T04:06:10.951Z,95.90
2022-12-12T04:09:03.339Z,96.70
2022-12-12T04:12:05.998Z,98.90
2022-12-12T04:14:52.535Z,99.90
2022-12-12T04:17:34.323Z,98.80
2022-12-12T04:20:28.851Z,97.10
2022-12-12T04:23:18.389Z,99.60
2022-12-12T04:26:16.794Z,99.90
2022-12-12T04:28:54.512Z,99.90
2022-12-12T04:31:28.783Z,99.00
2022-12-12T04:34:02.895Z,99.30
2022-12-12T04:36:33.320Z,97.70
2022-12-12T04:39:06.181Z,94.60
2022-12-12T04:41:39.963Z,96.40
2022-12-12T04:44:11.382Z,97.80
2022-12-12T04:46:41.718Z,94.00
2022-12-12T04:49:19.057Z,93.60
2022-12-12T04:51:51.085Z,95.30
2022-12-12T04:54:30.682Z,95.00
2022-12-12T04:57:02.510Z,94.70
2022-12-12T04:59:33.194Z,95.70
2022-12-12T05:02:09.395Z,96.90
2022-12-12T05:04:44.919Z,94.20
2022-12-12T05:07:22.393Z,94.90
2022-12-12T05:09:50.802Z,97.00
2022-12-12T05:12:45.523Z,99.90
2022-12-12T05:15:15.062Z,96.70
2022-12-12T05:17:57.506Z,96.50
2022-12-12T05:20:25.419Z,98.50
2022-12-12T05:22:59.305Z,99.90
2022-12-12T05:25:29.989Z,99.40
2022-12-12T05:28:01.869Z,97.60
2022-12-12T05:30:29.844Z,98.20
2022-12-12T05:32:57.773Z,98.30
2022-12-12T05:35:25.872Z,97.30
2022-12-12T05:37:56.489Z,98.20
2022-12-12T05:40:24.389Z,97.30
2022-12-12T05:42:55.469Z,96.50
2022-12-12T05:45:27.230Z,96.90
2022-12-12T05:47:55.081Z,94.30
2022-12-12T05:50:26.157Z,94.80
2022-12-12T05:52:56.859Z,95.90
2022-12-12T05:55:32.052Z,96.10
2022-12-12T05:57:59.910Z,96.50
2022-12-12T06:00:31.078Z,96.30
2022-12-12T06:02:59.100Z,96.20
2022-12-12T06:05:27.010Z,93.00
2022-12-12T06:07:54.935Z,93.20
2022-12-12T06:10:25.023Z,93.50
2022-12-12T06:12:55.724Z,94.00
2022-12-12T06:15:23.614Z,94.40
2022-12-12T06:18:01.931Z,97.00
2022-12-12T06:20:30.508Z,98.00
2022-12-12T06:23:04.701Z,97.10
2022-12-12T06:25:35.719Z,96.10
2022-12-12T06:28:09.631Z,97.00
2022-12-12T06:30:37.496Z,96.70
2022-12-12T06:33:06.945Z,94.60
2022-12-12T06:35:34.816Z,95.70
2022-12-12T06:38:11.640Z,95.50
2022-12-12T06:40:40.903Z,93.70
2022-12-12T06:43:09.556Z,95.30
2022-12-12T06:45:40.256Z,96.00
2022-12-12T06:48:09.533Z,93.80
2022-12-12T06:50:41.090Z,99.60
2022-12-12T06:53:24.430Z,99.10
2022-12-12T06:55:52.333Z,95.20
2022-12-12T06:58:20.224Z,93.80
2022-12-12T07:01:00.021Z,94.70
2022-12-12T07:03:29.262Z,94.80
2022-12-12T07:05:57.144Z,93.20
2022-12-12T07:08:25.046Z,93.60
2022-12-12T07:10:52.937Z,96.40
2022-12-12T07:13:24.307Z,97.50
2022-12-12T07:15:52.212Z,97.70
2022-12-12T07:18:20.157Z,97.20
2022-12-12T07:20:49.380Z,97.10
2022-12-12T07:23:20.317Z,94.90
2022-12-12T07:25:48.195Z,92.50
2022-12-12T07:28:16.659Z,93.00
2022-12-12T07:30:49.261Z,94.90
2022-12-12T07:33:18.245Z,96.40
2022-12-12T07:35:46.228Z,93.80
2022-12-12T07:38:32.926Z,92.80
2022-12-12T07:41:05.291Z,94.50
2022-12-12T07:43:44.907Z,95.20
2022-12-12T07:46:15.703Z,93.20
2022-12-12T07:48:49.910Z,93.80
2022-12-12T07:51:18.433Z,94.30
2022-12-12T07:53:47.955Z,93.70
2022-12-12T07:56:17.029Z,96.00
2022-12-12T07:58:48.413Z,97.50
2022-12-12T08:01:19.320Z,94.50
2022-12-12T08:03:48.854Z,94.40
2022-12-12T08:06:21.352Z,95.30
2022-12-12T08:08:51.864Z,96.30
2022-12-12T08:11:25.547Z,96.80
2022-12-12T08:13:53.911Z,93.30
2022-12-12T08:16:24.478Z,92.10
2022-12-12T08:18:55.018Z,91.50
2022-12-12T08:21:26.239Z,94.70
2022-12-12T08:23:58.452Z,95.80
2022-12-12T08:26:27.037Z,95.40
2022-12-12T08:28:55.381Z,95.00
2022-12-12T08:31:24.072Z,95.60
2022-12-12T08:33:52.984Z,96.50
2022-12-12T08:36:23.178Z,96.80
2022-12-12T08:38:51.966Z,93.70
2022-12-12T08:41:25.086Z,94.40
2022-12-12T08:43:53.136Z,96.60
2022-12-12T08:46:24.141Z,96.30
2022-12-12T08:48:52.142Z,92.20
2022-12-12T08:51:26.276Z,93.10
2022-12-12T08:53:54.832Z,94.70
2022-12-12T08:56:25.568Z,96.40
2022-12-12T08:58:53.699Z,94.20
2022-12-12T09:01:24.371Z,93.50
2022-12-12T09:03:54.650Z,95.50
2022-12-12T09:06:23.320Z,95.40
2022-12-12T09:08:51.581Z,96.30
2022-12-12T09:11:19.761Z,96.50
2022-12-12T09:13:52.382Z,95.80
2022-12-12T09:16:22.020Z,95.20
2022-12-12T09:18:53.290Z,95.20
2022-12-12T09:21:24.285Z,95.00
2022-12-12T09:23:57.446Z,95.50
2022-12-12T09:26:26.228Z,95.70
2022-12-12T09:28:55.597Z,95.50
2022-12-12T09:31:23.574Z,95.20
2022-12-12T09:33:54.967Z,94.10
2022-12-12T09:36:22.941Z,94.90
2022-12-12T09:38:50.889Z,95.20
2022-12-12T09:41:20.834Z,95.20
2022-12-12T09:44:02.435Z,94.60
2022-12-12T09:46:35.388Z,95.10
2022-12-12T09:49:13.375Z,95.20
2022-12-12T09:51:43.302Z,95.30
2022-12-12T09:54:14.459Z,95.00
2022-12-12T09:57:09.162Z,95.20
2022-12-12T09:59:45.087Z,95.50
2022-12-12T10:02:34.690Z,94.40
2022-12-12T10:05:07.826Z,95.10
2022-12-12T10:07:40.372Z,90.40
2022-12-12T10:10:18.190Z,90.30
2022-12-12T10:12:47.662Z,92.80
2022-12-12T10:15:29.641Z,94.00
2022-12-12T10:17:59.762Z,93.40
2022-12-12T10:20:30.584Z,96.10
2022-12-12T10:23:06.351Z,92.20
2022-12-12T10:25:42.118Z,92.10
2022-12-12T10:28:13.687Z,91.90
2022-12-12T10:30:56.231Z,95.80
2022-12-12T10:33:32.109Z,95.50
2022-12-12T10:36:08.460Z,94.90
2022-12-12T10:38:59.095Z,94.90
2022-12-12T10:41:41.092Z,94.80
2022-12-12T10:44:32.975Z,94.60
2022-12-12T10:47:05.885Z,94.50
2022-12-12T10:49:34.874Z,94.30
2022-12-12T10:52:05.840Z,94.20
2022-12-12T10:54:45.268Z,94.50
2022-12-12T10:57:20.248Z,94.00
2022-12-12T10:59:49.729Z,93.90
2022-12-12T11:02:31.192Z,93.60
2022-12-12T11:05:02.218Z,93.40
2022-12-12T11:07:37.110Z,93.70
2022-12-12T11:10:22.831Z,93.70
2022-12-12T11:12:57.825Z,93.80
2022-12-12T11:15:32.289Z,91.60
2022-12-12T11:18:08.106Z,93.60
2022-12-12T11:20:36.029Z,94.00
2022-12-12T11:23:04.355Z,94.00
2022-12-12T11:25:34.290Z,93.90
2022-12-12T11:28:06.904Z,94.00
2022-12-12T11:30:38.780Z,93.80
2022-12-12T11:33:10.051Z,93.50
2022-12-12T11:35:47.086Z,93.50
2022-12-12T11:38:27.140Z,93.50
2022-12-12T11:41:01.964Z,93.10
2022-12-12T11:43:31.648Z,93.00
2022-12-12T11:46:01.790Z,92.90
2022-12-12T11:48:41.315Z,91.00
2022-12-12T11:51:09.571Z,92.70
2022-12-12T11:53:42.244Z,90.30
2022-12-12T11:56:27.576Z,93.20
2022-12-12T11:59:24.992Z,87.10
2022-12-12T12:02:02.994Z,93.20
2022-12-12T12:04:49.602Z,90.80
2022-12-12T12:07:34.081Z,93.10
2022-12-12T12:10:22.546Z,93.80
2022-12-12T12:13:14.286Z,93.80
2022-12-12T12:15:50.836Z,93.80
2022-12-12T12:18:39.113Z,93.90
2022-12-12T12:21:28.250Z,93.90
2022-12-12T12:24:19.986Z,93.60
2022-12-12T12:27:00.747Z,90.90
2022-12-12T12:29:49.348Z,91.90
2022-12-12T12:32:26.970Z,91.70
2022-12-12T12:35:09.045Z,93.50
2022-12-12T12:37:48.032Z,93.50
2022-12-12T12:40:31.098Z,93.60
2022-12-12T12:43:16.824Z,93.60
2022-12-12T12:45:49.844Z,93.50
2022-12-12T12:48:23.576Z,93.40
2022-12-12T12:51:07.073Z,93.30
2022-12-12T12:53:44.305Z,93.10
2022-12-12T12:56:25.996Z,93.00
2022-12-12T12:58:57.756Z,92.80
2022-12-12T13:01:30.336Z,92.80
2022-12-12T13:04:03.764Z,92.90
2022-12-12T13:06:45.352Z,93.00
2022-12-12T13:09:36.849Z,93.10
2022-12-12T13:12:14.807Z,92.80
2022-12-12T13:14:47.105Z,92.10
2022-12-12T13:17:19.333Z,93.40
2022-12-12T13:19:50.702Z,86.30
2022-12-12T13:22:29.733Z,76.80
2022-12-12T13:25:09.514Z,78.00
2022-12-12T13:27:47.834Z,79.90
2022-12-12T13:30:23.260Z,77.10
2022-12-12T13:33:21.250Z,83.10
2022-12-12T13:36:02.789Z,84.60
2022-12-12T13:38:34.976Z,78.10
2022-12-12T13:41:09.910Z,83.90
2022-12-12T13:44:03.821Z,86.70
2022-12-12T13:46:38.463Z,74.60
2022-12-12T13:49:19.890Z,79.60
2022-12-12T13:51:53.404Z,82.40
2022-12-12T13:54:46.552Z,88.90
2022-12-12T13:57:26.372Z,91.00
2022-12-12T14:00:27.703Z,82.00
2022-12-12T14:03:28.086Z,77.60
2022-12-12T14:06:11.519Z,78.90
2022-12-12T14:08:49.433Z,81.70
2022-12-12T14:11:31.687Z,82.40
2022-12-12T14:14:23.465Z,83.30
2022-12-12T14:17:04.433Z,79.40
2022-12-12T14:19:38.313Z,74.80
2022-12-12T14:22:06.251Z,82.80
2022-12-12T14:25:04.639Z,86.30
2022-12-12T14:28:15.797Z,78.50
2022-12-12T14:30:56.234Z,86.00
2022-12-12T14:33:56.367Z,76.30
2022-12-12T14:37:00.914Z,74.90
2022-12-12T14:39:59.745Z,86.40
2022-12-12T14:43:20.567Z,81.80
2022-12-12T14:45:42.630Z,76.40
2022-12-12T14:48:17.393Z,87.50
2022-12-12T14:51:09.061Z,81.60
2022-12-12T14:53:45.957Z,78.90
2022-12-12T14:56:16.147Z,77.00
2022-12-12T14:58:50.534Z,77.50
2022-12-12T15:01:31.006Z,78.80
2022-12-12T15:04:05.115Z,79.30
2022-12-12T15:06:36.274Z,80.80
2022-12-12T15:09:19.297Z,81.60
2022-12-12T15:11:48.185Z,80.40
2022-12-12T15:14:25.503Z,80.70
2022-12-12T15:17:01.138Z,85.90
2022-12-12T15:19:33.614Z,91.60
2022-12-12T15:22:03.781Z,88.70
2022-12-12T15:24:40.339Z,81.60
2022-12-12T15:27:08.655Z,79.70
2022-12-12T15:29:42.477Z,81.00
2022-12-12T15:32:20.268Z,91.90
2022-12-12T15:35:02.020Z,94.40
2022-12-12T15:37:31.771Z,94.20
2022-12-12T15:40:26.309Z,94.00
2022-12-12T15:42:56.789Z,93.70
2022-12-12T15:45:30.255Z,88.90
2022-12-12T15:48:01.553Z,92.50
2022-12-12T15:50:35.702Z,93.10
2022-12-12T15:53:07.365Z,91.10
2022-12-12T15:55:36.157Z,92.30
2022-12-12T15:58:07.025Z,91.40
2022-12-12T16:00:40.362Z,80.80
2022-12-12T16:03:23.717Z,77.80
2022-12-12T16:06:14.963Z,78.70
2022-12-12T16:08:49.862Z,91.10
2022-12-12T16:11:33.602Z,94.00
2022-12-12T16:14:05.077Z,90.20
2022-12-12T16:16:43.585Z,82.50
2022-12-12T16:19:42.798Z,83.10
2022-12-12T16:22:29.085Z,92.20
2022-12-12T16:25:18.016Z,93.80
2022-12-12T16:27:51.016Z,87.10
2022-12-12T16:30:21.826Z,81.40
2022-12-12T16:32:49.756Z,87.40
2022-12-12T16:35:19.234Z,89.20
2022-12-12T16:37:49.057Z,89.10
2022-12-12T16:40:21.147Z,83.60
2022-12-12T16:42:55.766Z,86.50
2022-12-12T16:45:26.549Z,93.80
2022-12-12T16:47:55.188Z,94.40
2022-12-12T16:50:29.076Z,94.00
2022-12-12T16:53:04.978Z,91.40
2022-12-12T16:55:35.091Z,92.90
2022-12-12T16:58:02.953Z,91.90
2022-12-12T17:00:30.771Z,80.50
2022-12-12T17:02:58.622Z,78.50
2022-12-12T17:05:29.675Z,84.20
2022-12-12T17:07:57.783Z,90.70
2022-12-12T17:10:27.187Z,84.30
2022-12-12T17:12:55.413Z,80.30
2022-12-12T17:15:25.838Z,79.20
2022-12-12T17:17:55.714Z,90.60
2022-12-12T17:20:27.316Z,92.30
2022-12-12T17:26:02.485Z,90.90
2022-12-12T17:28:32.556Z,82.80
2022-12-12T17:31:08.162Z,83.40
2022-12-12T17:33:42.334Z,90.10
2022-12-12T17:36:18.459Z,91.50
2022-12-12T17:38:46.756Z,90.60
2022-12-12T17:41:16.179Z,88.50
2022-12-12T17:43:44.045Z,81.80
2022-12-12T17:46:15.053Z,80.00
2022-12-12T17:48:45.866Z,89.00
2022-12-12T17:51:18.745Z,93.70
2022-12-12T17:53:47.021Z,81.80
2022-12-12T17:56:18.561Z,79.90
2022-12-12T17:58:48.168Z,78.60
2022-12-12T18:01:18.730Z,77.50
2022-12-12T18:03:46.884Z,84.30
2022-12-12T18:06:22.316Z,91.50
2022-12-12T18:08:51.114Z,89.80
2022-12-12T18:11:24.466Z,82.30
2022-12-12T18:13:53.746Z,85.30
2022-12-12T18:16:23.539Z,90.50
2022-12-12T18:18:58.333Z,81.70
2022-12-12T18:21:59.267Z,90.30
2022-12-12T18:24:17.041Z,92.00
2022-12-12T18:26:47.572Z,82.10
2022-12-12T18:29:15.482Z,80.10
2022-12-12T18:31:43.420Z,80.20
2022-12-12T18:34:14.416Z,82.60
2022-12-12T18:36:49.274Z,91.40
2022-12-12T18:39:25.008Z,90.90
2022-12-12T18:41:54.290Z,80.50
2022-12-12T18:44:22.919Z,79.10
2022-12-12T18:46:51.654Z,80.20
2022-12-12T18:49:19.718Z,90.90
2022-12-12T18:51:50.436Z,94.10
2022-12-12T18:54:26.739Z,94.80
2022-12-12T18:57:01.341Z,92.70
2022-12-12T18:59:29.299Z,90.60
2022-12-12T19:01:57.220Z,91.90
2022-12-12T19:04:31.381Z,93.00
2022-12-12T19:07:05.409Z,85.00
2022-12-12T19:09:42.568Z,81.70
2022-12-12T19:12:12.006Z,79.50
2022-12-12T19:15:08.110Z,84.90
2022-12-12T19:17:30.832Z,92.60
2022-12-12T19:19:58.803Z,92.40
2022-12-12T19:22:45.046Z,85.80
2022-12-12T19:25:18.250Z,83.10
2022-12-12T19:27:47.548Z,81.90
2022-12-12T19:30:16.556Z,88.40
2022-12-12T19:32:50.745Z,91.60
2022-12-12T19:35:21.685Z,89.90
2022-12-12T19:37:49.552Z,88.50
2022-12-12T19:40:23.936Z,80.70
2022-12-12T19:42:55.496Z,77.00
2022-12-12T19:45:23.363Z,87.00
2022-12-12T19:47:51.252Z,91.90
2022-12-12T19:50:19.229Z,93.00
2022-12-12T19:52:50.248Z,93.10
2022-12-12T19:55:18.365Z,83.20
2022-12-12T19:57:46.239Z,86.50
2022-12-12T20:00:21.123Z,91.00
2022-12-12T20:02:49.083Z,81.20
2022-12-12T20:05:25.970Z,87.40
2022-12-12T20:07:57.438Z,92.30
2022-12-12T20:10:28.077Z,83.30
2022-12-12T20:12:58.677Z,83.90
2022-12-12T20:15:28.287Z,93.00
2022-12-12T20:18:00.019Z,93.30
2022-12-12T20:20:27.978Z,85.10
2022-12-12T20:22:55.828Z,90.00
2022-12-12T20:25:23.687Z,92.20
2022-12-12T20:27:54.307Z,84.80
2022-12-12T20:30:22.168Z,87.60
2022-12-12T20:32:51.390Z,92.50
2022-12-12T20:35:19.289Z,93.80
2022-12-12T20:37:47.156Z,91.00
2022-12-12T20:40:18.080Z,80.70
2022-12-12T20:42:55.974Z,87.30
2022-12-12T20:45:29.592Z,91.50
2022-12-12T20:48:03.016Z,82.70
2022-12-12T20:50:35.211Z,80.30
2022-12-12T20:53:09.247Z,90.10
2022-12-12T20:55:40.080Z,92.40
2022-12-12T20:58:07.954Z,93.10
2022-12-12T21:00:36.570Z,85.80
2022-12-12T21:03:13.663Z,79.20
2022-12-12T21:05:41.565Z,88.30
2022-12-12T21:08:12.313Z,91.10
2022-12-12T21:10:43.126Z,92.30
2022-12-12T21:13:13.309Z,92.90
2022-12-12T21:15:41.203Z,93.40
2022-12-12T21:18:13.250Z,93.90
2022-12-12T21:20:54.884Z,92.60
2022-12-12T21:23:25.550Z,85.00
2022-12-12T21:25:56.400Z,84.40
2022-12-12T21:28:30.697Z,81.80
2022-12-12T21:30:59.126Z,75.60
2022-12-12T21:33:31.146Z,73.70
2022-12-12T21:36:04.398Z,74.50
2022-12-12T21:38:35.412Z,76.10
2022-12-12T21:41:05.022Z,81.40
2022-12-12T21:43:36.754Z,92.50
2022-12-12T21:46:08.691Z,89.80
2022-12-12T21:48:38.510Z,83.80
2022-12-12T21:51:16.081Z,90.30
2022-12-12T21:53:44.406Z,92.20
2022-12-12T21:56:18.833Z,85.20
2022-12-12T21:58:47.519Z,82.20
2022-12-12T22:01:21.064Z,91.30
2022-12-12T22:03:50.584Z,90.30
2022-12-12T22:06:23.248Z,90.20
2022-12-12T22:08:51.455Z,92.40
2022-12-12T22:11:30.993Z,93.40
2022-12-12T22:14:10.936Z,90.70
2022-12-12T22:16:47.609Z,81.60
2022-12-12T22:19:22.074Z,91.10
2022-12-12T22:21:52.749Z,90.90
2022-12-12T22:24:27.086Z,83.00
2022-12-12T22:26:54.988Z,90.00
2022-12-12T22:29:22.964Z,91.90
2022-12-12T22:31:52.396Z,83.30
2022-12-12T22:34:23.282Z,89.20
2022-12-12T22:36:52.710Z,92.90
2022-12-12T22:39:23.319Z,93.50
2022-12-12T22:42:06.608Z,93.60
2022-12-12T22:44:40.502Z,93.60
2022-12-12T22:47:11.195Z,93.70
2022-12-12T22:49:40.471Z,92.80
2022-12-12T22:52:11.329Z,91.80
2022-12-12T22:54:39.385Z,92.60
2022-12-12T22:57:07.250Z,84.60
2022-12-12T22:59:38.211Z,78.40
2022-12-12T23:02:08.805Z,88.20
2022-12-12T23:04:41.243Z,92.00
2022-12-12T23:07:09.446Z,83.10
2022-12-12T23:09:37.512Z,86.60
2022-12-12T23:12:11.400Z,91.30
2022-12-12T23:14:39.287Z,85.00
2022-12-12T23:17:09.877Z,81.10
2022-12-12T23:19:42.258Z,91.60
2022-12-12T23:22:10.362Z,92.60
2022-12-12T23:24:38.664Z,83.60
2022-12-12T23:27:06.607Z,82.40
2022-12-12T23:29:34.505Z,90.40
2022-12-12T23:32:08.768Z,80.70
2022-12-12T23:34:36.817Z,76.30
2022-12-12T23:37:06.128Z,82.40
2022-12-12T23:39:34.082Z,90.20
2022-12-12T23:42:05.136Z,80.70
2022-12-12T23:44:33.202Z,76.80
2022-12-12T23:47:07.223Z,88.90
2022-12-12T23:49:35.220Z,91.90
2022-12-12T23:52:07.569Z,79.50
2022-12-12T23:54:35.862Z,81.80
2022-12-12T23:57:06.907Z,90.60
2022-12-12T23:59:34.784Z,88.40
